DLH454 EDDF-KSFO
Flight info
| Callsign | DLH454 |
|---|---|
| Flight time | N/A |
| Altitude | 34000 |
| Route | OBOKA3M/25C OBOKA Z28 DIBIR DCT BUDIP DCT SUSET DCT TOPPA DCT BUDON DCT PEMOS/M082F340 DCT 64N010W/M082F360 68N020W 70N030W 71N040W 73N060W DCT MEDPA/N0474F360 DCT 70N087W/N0474F380 65N101W 60N108W 55N114W 50N119W/N0458F400 DCT LTJ/N0460F390 DCT RBL DCT MRRLO BDEGA4 |
| Aircraft | A346/H-SDE2E3GHIJ1J3J4J5LM1ORWXYZ/C |
Departure
| Time | N/A |
|---|---|
| Airport | Frankfurt Main Airport (EDDF) |
Arrival
| Time | 2026-05-04 01:47 |
|---|---|
| Airport | San Francisco International Airport (KSFO) |
| Time | Latitude | Longitude | Altitude | Speed | Heading |
|---|---|---|---|---|---|
| 2026-05-03 20:38 | 70.70393 | -83.46142 | 38548 ft | 450 kts | 242° |
| 2026-05-03 20:38 | 70.67348 | -83.62749 | 38543 ft | 451 kts | 241° |
| 2026-05-03 20:39 | 70.64286 | -83.79307 | 38535 ft | 451 kts | 241° |
| 2026-05-03 20:39 | 70.61209 | -83.95822 | 38532 ft | 451 kts | 241° |
| 2026-05-03 20:40 | 70.58119 | -84.12272 | 38537 ft | 451 kts | 241° |
| 2026-05-03 20:40 | 70.55012 | -84.28689 | 38542 ft | 452 kts | 241° |
| 2026-05-03 20:41 | 70.51890 | -84.45054 | 38530 ft | 452 kts | 240° |
| 2026-05-03 20:41 | 70.48753 | -84.61369 | 38542 ft | 452 kts | 240° |
| 2026-05-03 20:42 | 70.46132 | -84.74914 | 38515 ft | 453 kts | 240° |
| 2026-05-03 20:42 | 70.42963 | -84.91172 | 38527 ft | 452 kts | 240° |
| 2026-05-03 20:43 | 70.39779 | -85.07369 | 38516 ft | 452 kts | 240° |
| 2026-05-03 20:43 | 70.36579 | -85.23529 | 38517 ft | 453 kts | 239° |
| 2026-05-03 20:44 | 70.33363 | -85.39645 | 38510 ft | 453 kts | 239° |
| 2026-05-03 20:44 | 70.30135 | -85.55701 | 38507 ft | 453 kts | 239° |
| 2026-05-03 20:45 | 70.26892 | -85.71710 | 38497 ft | 453 kts | 239° |
| 2026-05-03 20:45 | 70.23632 | -85.87688 | 38497 ft | 454 kts | 239° |
| 2026-05-03 20:46 | 70.20355 | -86.03622 | 38485 ft | 454 kts | 239° |
| 2026-05-03 20:46 | 70.17060 | -86.19526 | 38481 ft | 454 kts | 239° |
| 2026-05-03 20:47 | 70.13756 | -86.35359 | 38478 ft | 454 kts | 238° |
| 2026-05-03 20:47 | 70.10433 | -86.51156 | 38479 ft | 454 kts | 238° |
| 2026-05-03 20:48 | 70.07121 | -86.66786 | 38481 ft | 454 kts | 238° |
| 2026-05-03 20:48 | 70.03770 | -86.82479 | 38478 ft | 454 kts | 238° |
| 2026-05-03 20:49 | 70.00389 | -86.98095 | 38483 ft | 455 kts | 236° |
| 2026-05-03 20:49 | 69.96674 | -87.13029 | 38477 ft | 455 kts | 233° |
| 2026-05-03 20:50 | 69.92907 | -87.27873 | 38484 ft | 455 kts | 233° |
| 2026-05-03 20:50 | 69.89130 | -87.42668 | 38481 ft | 455 kts | 233° |
| 2026-05-03 20:51 | 69.85335 | -87.57399 | 38469 ft | 455 kts | 233° |
| 2026-05-03 20:51 | 69.81522 | -87.72085 | 38468 ft | 456 kts | 233° |
| 2026-05-03 20:52 | 69.77694 | -87.86725 | 38466 ft | 456 kts | 233° |
| 2026-05-03 20:52 | 69.73853 | -88.01314 | 38477 ft | 457 kts | 233° |
| 2026-05-03 20:53 | 69.69991 | -88.15880 | 38477 ft | 457 kts | 232° |
| 2026-05-03 20:53 | 69.66111 | -88.30410 | 38476 ft | 457 kts | 232° |
| 2026-05-03 20:54 | 69.62224 | -88.44877 | 38471 ft | 457 kts | 232° |
| 2026-05-03 20:54 | 69.56368 | -88.66486 | 38475 ft | 457 kts | 232° |
| 2026-05-03 20:55 | 69.52446 | -88.80835 | 38484 ft | 457 kts | 232° |
| 2026-05-03 20:55 | 69.48515 | -88.95131 | 38471 ft | 458 kts | 232° |
| 2026-05-03 20:56 | 69.44569 | -89.09379 | 38475 ft | 458 kts | 232° |
| 2026-05-03 20:56 | 69.40635 | -89.23487 | 38472 ft | 458 kts | 231° |
| 2026-05-03 20:57 | 69.36636 | -89.37739 | 38465 ft | 458 kts | 231° |
| 2026-05-03 20:57 | 69.32684 | -89.51731 | 38459 ft | 458 kts | 231° |
| 2026-05-03 20:58 | 69.28664 | -89.65872 | 38464 ft | 458 kts | 231° |
| 2026-05-03 20:58 | 69.24684 | -89.79780 | 38459 ft | 458 kts | 231° |
| 2026-05-03 20:59 | 69.20669 | -89.93716 | 38460 ft | 458 kts | 231° |
| 2026-05-03 20:59 | 69.16610 | -90.07727 | 38444 ft | 459 kts | 231° |
| 2026-05-03 21:00 | 69.13242 | -90.19272 | 38449 ft | 459 kts | 230° |
| 2026-05-03 21:00 | 69.08520 | -90.35356 | 38430 ft | 459 kts | 230° |
| 2026-05-03 21:01 | 69.04443 | -90.49146 | 38441 ft | 460 kts | 230° |
| 2026-05-03 21:01 | 69.00354 | -90.62892 | 38444 ft | 460 kts | 230° |
| 2026-05-03 21:02 | 68.96253 | -90.76588 | 38429 ft | 460 kts | 230° |
| 2026-05-03 21:02 | 68.92144 | -90.90223 | 38436 ft | 460 kts | 230° |
| 2026-05-03 21:03 | 68.88025 | -91.03808 | 38442 ft | 459 kts | 230° |
| 2026-05-03 21:03 | 68.83905 | -91.17315 | 38409 ft | 458 kts | 229° |
| 2026-05-03 21:04 | 68.79779 | -91.30750 | 38416 ft | 457 kts | 229° |
| 2026-05-03 21:04 | 68.75644 | -91.44125 | 38417 ft | 457 kts | 229° |
| 2026-05-03 21:05 | 68.71503 | -91.57437 | 38392 ft | 457 kts | 229° |
| 2026-05-03 21:05 | 68.67376 | -91.70627 | 38394 ft | 458 kts | 229° |
| 2026-05-03 21:06 | 68.63207 | -91.83868 | 38394 ft | 458 kts | 229° |
| 2026-05-03 21:06 | 68.59029 | -91.97053 | 38406 ft | 458 kts | 229° |
| 2026-05-03 21:07 | 68.54833 | -92.10215 | 38373 ft | 458 kts | 229° |
| 2026-05-03 21:07 | 68.50633 | -92.23312 | 38362 ft | 458 kts | 228° |
| 2026-05-03 21:08 | 68.46422 | -92.36364 | 38365 ft | 459 kts | 228° |
| 2026-05-03 21:08 | 68.42193 | -92.49384 | 38353 ft | 458 kts | 228° |
| 2026-05-03 21:09 | 68.37952 | -92.62365 | 38354 ft | 460 kts | 228° |
| 2026-05-03 21:09 | 68.33698 | -92.75305 | 38354 ft | 459 kts | 228° |
| 2026-05-03 21:10 | 68.29441 | -92.88177 | 38359 ft | 458 kts | 227° |
| 2026-05-03 21:10 | 68.25148 | -93.01072 | 38344 ft | 463 kts | 227° |
| 2026-05-03 21:11 | 68.20826 | -93.13986 | 38342 ft | 463 kts | 227° |
| 2026-05-03 21:11 | 68.16493 | -93.26852 | 38344 ft | 464 kts | 227° |
| 2026-05-03 21:12 | 68.12143 | -93.39693 | 38330 ft | 465 kts | 227° |
| 2026-05-03 21:12 | 68.07770 | -93.52519 | 38334 ft | 466 kts | 227° |
| 2026-05-03 21:13 | 68.03390 | -93.65286 | 38333 ft | 465 kts | 227° |
| 2026-05-03 21:13 | 67.98999 | -93.78012 | 38331 ft | 466 kts | 227° |
| 2026-05-03 21:14 | 67.94590 | -93.90708 | 38339 ft | 467 kts | 227° |
| 2026-05-03 21:14 | 67.90166 | -94.03377 | 38335 ft | 467 kts | 227° |
| 2026-05-03 21:15 | 67.85733 | -94.15996 | 38335 ft | 467 kts | 226° |
| 2026-05-03 21:15 | 67.81286 | -94.28576 | 38332 ft | 467 kts | 226° |
| 2026-05-03 21:16 | 67.76834 | -94.41096 | 38330 ft | 467 kts | 226° |
| 2026-05-03 21:16 | 67.72371 | -94.53573 | 38334 ft | 467 kts | 226° |
| 2026-05-03 21:17 | 67.68657 | -94.63899 | 38335 ft | 467 kts | 226° |
| 2026-05-03 21:17 | 67.63419 | -94.78377 | 38337 ft | 467 kts | 226° |
| 2026-05-03 21:18 | 67.58930 | -94.90705 | 38324 ft | 467 kts | 226° |
| 2026-05-03 21:18 | 67.54437 | -95.02974 | 38326 ft | 467 kts | 226° |
| 2026-05-03 21:19 | 67.49928 | -95.15210 | 38321 ft | 467 kts | 226° |
| 2026-05-03 21:19 | 67.45415 | -95.27390 | 38310 ft | 467 kts | 225° |
| 2026-05-03 21:20 | 67.40902 | -95.39504 | 38315 ft | 465 kts | 225° |
| 2026-05-03 21:20 | 67.36378 | -95.51567 | 38325 ft | 466 kts | 225° |
| 2026-05-03 21:21 | 67.31852 | -95.63567 | 38322 ft | 469 kts | 225° |
| 2026-05-03 21:21 | 67.27283 | -95.75614 | 38310 ft | 469 kts | 225° |
| 2026-05-03 21:22 | 67.22698 | -95.87636 | 38315 ft | 469 kts | 225° |
| 2026-05-03 21:22 | 67.18110 | -95.99596 | 38318 ft | 469 kts | 225° |
| 2026-05-03 21:23 | 67.13509 | -96.11519 | 38309 ft | 469 kts | 225° |
| 2026-05-03 21:23 | 67.08903 | -96.23390 | 38306 ft | 469 kts | 224° |
| 2026-05-03 21:24 | 67.04288 | -96.35220 | 38311 ft | 469 kts | 224° |
| 2026-05-03 21:24 | 66.99654 | -96.47017 | 38297 ft | 470 kts | 224° |
| 2026-05-03 21:25 | 66.95015 | -96.58768 | 38299 ft | 469 kts | 224° |
| 2026-05-03 21:25 | 66.90368 | -96.70473 | 38291 ft | 470 kts | 224° |
| 2026-05-03 21:26 | 66.85706 | -96.82149 | 38290 ft | 470 kts | 224° |
| 2026-05-03 21:26 | 66.81038 | -96.93772 | 38292 ft | 470 kts | 224° |
| 2026-05-03 21:27 | 66.77151 | -97.03405 | 38289 ft | 470 kts | 224° |
| 2026-05-03 21:27 | 66.72465 | -97.14956 | 38290 ft | 470 kts | 224° |
| 2026-05-03 21:28 | 66.67753 | -97.26505 | 38288 ft | 472 kts | 223° |
| 2026-05-03 21:28 | 66.63026 | -97.38025 | 38285 ft | 472 kts | 223° |
| 2026-05-03 21:29 | 66.58291 | -97.49503 | 38284 ft | 472 kts | 223° |
| 2026-05-03 21:29 | 66.53540 | -97.60953 | 38283 ft | 473 kts | 223° |
| 2026-05-03 21:30 | 66.48787 | -97.72348 | 38281 ft | 472 kts | 223° |
| 2026-05-03 21:30 | 66.44025 | -97.83699 | 38279 ft | 472 kts | 223° |
| 2026-05-03 21:31 | 66.39254 | -97.95009 | 38272 ft | 472 kts | 223° |
| 2026-05-03 21:31 | 66.34477 | -98.06271 | 38272 ft | 473 kts | 223° |
| 2026-05-03 21:32 | 66.29676 | -98.17527 | 38279 ft | 474 kts | 223° |
| 2026-05-03 21:32 | 66.24864 | -98.28743 | 38257 ft | 474 kts | 223° |
| 2026-05-03 21:33 | 66.20044 | -98.39922 | 38258 ft | 474 kts | 222° |
| 2026-05-03 21:33 | 66.15219 | -98.51048 | 38262 ft | 474 kts | 222° |
| 2026-05-03 21:34 | 66.10385 | -98.62135 | 38261 ft | 474 kts | 222° |
| 2026-05-03 21:34 | 66.05537 | -98.73188 | 38257 ft | 475 kts | 222° |
| 2026-05-03 21:35 | 66.00708 | -98.84145 | 38264 ft | 476 kts | 222° |
| 2026-05-03 21:35 | 65.95835 | -98.95147 | 38253 ft | 476 kts | 222° |
| 2026-05-03 21:36 | 65.90950 | -99.06111 | 38251 ft | 477 kts | 222° |
| 2026-05-03 21:36 | 65.86050 | -99.17049 | 38254 ft | 477 kts | 222° |
| 2026-05-03 21:37 | 65.81138 | -99.27953 | 38252 ft | 477 kts | 221° |
| 2026-05-03 21:37 | 65.76222 | -99.38807 | 38254 ft | 477 kts | 222° |
| 2026-05-03 21:38 | 65.71289 | -99.49634 | 38247 ft | 478 kts | 222° |
| 2026-05-03 21:38 | 65.66350 | -99.60430 | 38245 ft | 478 kts | 221° |
| 2026-05-03 21:39 | 65.61395 | -99.71201 | 38248 ft | 478 kts | 221° |
| 2026-05-03 21:39 | 65.56430 | -99.81935 | 38247 ft | 479 kts | 221° |
| 2026-05-03 21:40 | 65.51447 | -99.92645 | 38237 ft | 479 kts | 221° |
| 2026-05-03 21:40 | 65.46463 | -100.03300 | 38240 ft | 479 kts | 221° |
| 2026-05-03 21:41 | 65.41463 | -100.13925 | 38241 ft | 480 kts | 221° |
| 2026-05-03 21:41 | 65.36451 | -100.24533 | 38232 ft | 480 kts | 221° |
| 2026-05-03 21:42 | 65.31430 | -100.35106 | 38224 ft | 480 kts | 221° |
| 2026-05-03 21:42 | 65.26400 | -100.45638 | 38232 ft | 480 kts | 221° |
| 2026-05-03 21:43 | 65.21363 | -100.56133 | 38217 ft | 481 kts | 221° |
| 2026-05-03 21:43 | 65.16303 | -100.66611 | 38228 ft | 482 kts | 221° |
| 2026-05-03 21:44 | 65.11238 | -100.77044 | 38207 ft | 482 kts | 220° |
| 2026-05-03 21:44 | 65.06153 | -100.87455 | 38221 ft | 483 kts | 221° |
| 2026-05-03 21:45 | 65.01051 | -100.97831 | 38224 ft | 483 kts | 220° |
| 2026-05-03 21:45 | 64.95686 | -101.07365 | 38219 ft | 483 kts | 216° |
| 2026-05-03 21:46 | 64.90243 | -101.16675 | 38209 ft | 483 kts | 216° |
| 2026-05-03 21:46 | 64.84832 | -101.25907 | 38214 ft | 484 kts | 216° |
| 2026-05-03 21:47 | 64.79326 | -101.35239 | 38200 ft | 485 kts | 216° |
| 2026-05-03 21:47 | 64.73845 | -101.44467 | 38195 ft | 485 kts | 216° |
| 2026-05-03 21:48 | 64.68351 | -101.53668 | 38214 ft | 486 kts | 216° |
| 2026-05-03 21:48 | 64.62888 | -101.62777 | 38191 ft | 486 kts | 216° |
| 2026-05-03 21:49 | 64.57377 | -101.71915 | 38205 ft | 486 kts | 216° |
| 2026-05-03 21:49 | 64.51856 | -101.81023 | 38204 ft | 486 kts | 216° |
| 2026-05-03 21:50 | 64.46326 | -101.90101 | 38190 ft | 488 kts | 216° |
| 2026-05-03 21:50 | 64.40783 | -101.99156 | 38200 ft | 487 kts | 216° |
| 2026-05-03 21:51 | 64.35234 | -102.08167 | 38200 ft | 488 kts | 216° |
| 2026-05-03 21:51 | 64.29668 | -102.17164 | 38196 ft | 489 kts | 216° |
| 2026-05-03 21:52 | 64.24086 | -102.26146 | 38206 ft | 489 kts | 216° |
| 2026-05-03 21:52 | 64.18501 | -102.35089 | 38199 ft | 489 kts | 215° |
| 2026-05-03 21:53 | 64.12909 | -102.43995 | 38190 ft | 489 kts | 215° |
| 2026-05-03 21:53 | 64.07318 | -102.52855 | 38181 ft | 489 kts | 215° |
| 2026-05-03 21:54 | 64.01720 | -102.61682 | 38176 ft | 489 kts | 215° |
| 2026-05-03 21:54 | 63.96106 | -102.70483 | 38186 ft | 491 kts | 215° |
| 2026-05-03 21:55 | 63.90504 | -102.79237 | 38179 ft | 491 kts | 215° |
| 2026-05-03 21:55 | 63.84832 | -102.88056 | 38185 ft | 490 kts | 215° |
| 2026-05-03 21:56 | 63.79227 | -102.96721 | 38183 ft | 490 kts | 215° |
| 2026-05-03 21:56 | 63.73580 | -103.05405 | 38176 ft | 491 kts | 215° |
| 2026-05-03 21:57 | 63.67919 | -103.14069 | 38176 ft | 492 kts | 215° |
| 2026-05-03 21:57 | 63.62251 | -103.22703 | 38162 ft | 492 kts | 215° |
| 2026-05-03 21:58 | 63.56567 | -103.31314 | 38167 ft | 493 kts | 215° |
| 2026-05-03 21:58 | 63.50873 | -103.39906 | 38162 ft | 493 kts | 215° |
| 2026-05-03 21:59 | 63.45172 | -103.48464 | 38155 ft | 493 kts | 215° |
| 2026-05-03 21:59 | 63.39462 | -103.56994 | 38164 ft | 493 kts | 214° |
| 2026-05-03 22:00 | 63.33751 | -103.65484 | 38154 ft | 493 kts | 214° |
| 2026-05-03 22:00 | 63.28035 | -103.73939 | 38150 ft | 493 kts | 214° |
| 2026-05-03 22:01 | 63.22314 | -103.82361 | 38145 ft | 493 kts | 214° |
| 2026-05-03 22:01 | 63.16584 | -103.90755 | 38141 ft | 493 kts | 214° |
| 2026-05-03 22:02 | 63.10854 | -103.99110 | 38144 ft | 493 kts | 214° |
| 2026-05-03 22:02 | 63.05120 | -104.07431 | 38138 ft | 493 kts | 214° |
| 2026-05-03 22:03 | 62.99371 | -104.15731 | 38134 ft | 494 kts | 214° |
| 2026-05-03 22:03 | 62.93610 | -104.24011 | 38133 ft | 494 kts | 214° |
| 2026-05-03 22:04 | 62.87850 | -104.32250 | 38128 ft | 495 kts | 214° |
| 2026-05-03 22:04 | 62.82075 | -104.40472 | 38131 ft | 495 kts | 214° |
| 2026-05-03 22:05 | 62.76301 | -104.48653 | 38126 ft | 494 kts | 214° |
| 2026-05-03 22:05 | 62.70521 | -104.56802 | 38117 ft | 494 kts | 214° |
| 2026-05-03 22:06 | 62.64737 | -104.64920 | 38128 ft | 495 kts | 214° |
| 2026-05-03 22:06 | 62.58939 | -104.73020 | 38115 ft | 495 kts | 214° |
| 2026-05-03 22:07 | 62.53137 | -104.81086 | 38113 ft | 495 kts | 214° |
| 2026-05-03 22:07 | 62.47326 | -104.89123 | 38107 ft | 495 kts | 214° |
| 2026-05-03 22:08 | 62.41510 | -104.97135 | 38103 ft | 496 kts | 214° |
| 2026-05-03 22:08 | 62.35695 | -105.05108 | 38100 ft | 496 kts | 213° |
| 2026-05-03 22:09 | 62.29872 | -105.13055 | 38104 ft | 496 kts | 213° |
| 2026-05-03 22:10 | 62.21160 | -105.24874 | 38098 ft | 496 kts | 213° |
| 2026-05-03 22:10 | 62.15319 | -105.32753 | 38084 ft | 496 kts | 213° |
| 2026-05-03 22:11 | 62.09467 | -105.40600 | 38081 ft | 497 kts | 213° |
| 2026-05-03 22:11 | 62.03603 | -105.48440 | 38088 ft | 497 kts | 213° |
| 2026-05-03 22:12 | 61.97735 | -105.56251 | 38083 ft | 497 kts | 213° |
| 2026-05-03 22:12 | 61.91857 | -105.64035 | 38088 ft | 498 kts | 213° |
| 2026-05-03 22:13 | 61.85974 | -105.71790 | 38074 ft | 498 kts | 213° |
| 2026-05-03 22:13 | 61.81081 | -105.78212 | 38073 ft | 498 kts | 213° |
| 2026-05-03 22:14 | 61.74191 | -105.87210 | 38059 ft | 498 kts | 213° |
| 2026-05-03 22:14 | 61.68280 | -105.94889 | 38069 ft | 499 kts | 213° |
| 2026-05-03 22:15 | 61.63359 | -106.01266 | 38066 ft | 499 kts | 213° |
| 2026-05-03 22:15 | 61.57437 | -106.08904 | 38068 ft | 499 kts | 213° |
| 2026-05-03 22:16 | 61.51508 | -106.16516 | 38065 ft | 500 kts | 213° |
| 2026-05-03 22:16 | 61.45572 | -106.24101 | 38065 ft | 500 kts | 213° |
| 2026-05-03 22:17 | 61.39631 | -106.31657 | 38055 ft | 500 kts | 213° |
| 2026-05-03 22:17 | 61.33677 | -106.39186 | 38041 ft | 501 kts | 213° |
| 2026-05-03 22:18 | 61.27714 | -106.46707 | 38045 ft | 501 kts | 213° |
| 2026-05-03 22:18 | 61.21746 | -106.54200 | 38043 ft | 501 kts | 213° |
| 2026-05-03 22:19 | 61.15770 | -106.61666 | 38048 ft | 501 kts | 213° |
| 2026-05-03 22:19 | 61.09785 | -106.69111 | 38039 ft | 501 kts | 213° |
| 2026-05-03 22:20 | 61.03841 | -106.76470 | 38034 ft | 501 kts | 213° |
| 2026-05-03 22:20 | 60.97847 | -106.83852 | 38023 ft | 501 kts | 213° |
| 2026-05-03 22:21 | 60.91852 | -106.91211 | 38021 ft | 501 kts | 213° |
| 2026-05-03 22:21 | 60.85817 | -106.98587 | 38026 ft | 501 kts | 213° |
| 2026-05-03 22:22 | 60.79861 | -107.05832 | 38019 ft | 501 kts | 213° |
| 2026-05-03 22:22 | 60.73864 | -107.13096 | 38019 ft | 501 kts | 213° |
| 2026-05-03 22:23 | 60.67859 | -107.20336 | 38011 ft | 501 kts | 213° |
| 2026-05-03 22:23 | 60.61849 | -107.27548 | 37998 ft | 501 kts | 213° |
| 2026-05-03 22:24 | 60.55842 | -107.34729 | 37996 ft | 501 kts | 213° |
| 2026-05-03 22:24 | 60.49832 | -107.41882 | 38002 ft | 501 kts | 213° |
| 2026-05-03 22:25 | 60.43815 | -107.49012 | 37998 ft | 501 kts | 213° |
| 2026-05-03 22:25 | 60.37795 | -107.56115 | 37994 ft | 501 kts | 213° |
| 2026-05-03 22:26 | 60.31771 | -107.63191 | 37994 ft | 501 kts | 213° |
| 2026-05-03 22:26 | 60.25745 | -107.70236 | 37960 ft | 501 kts | 213° |
| 2026-05-03 22:27 | 60.19702 | -107.77273 | 37986 ft | 501 kts | 213° |
| 2026-05-03 22:27 | 60.13661 | -107.84279 | 37986 ft | 501 kts | 213° |
| 2026-05-03 22:28 | 60.07613 | -107.91260 | 37980 ft | 501 kts | 213° |
| 2026-05-03 22:28 | 60.01570 | -107.98232 | 37975 ft | 501 kts | 214° |
| 2026-05-03 22:29 | 59.95806 | -108.05946 | 37973 ft | 499 kts | 219° |
| 2026-05-03 22:29 | 59.90144 | -108.13965 | 37955 ft | 499 kts | 219° |
| 2026-05-03 22:30 | 59.84467 | -108.21946 | 37976 ft | 499 kts | 219° |
| 2026-05-03 22:30 | 59.78787 | -108.29899 | 37974 ft | 499 kts | 219° |
| 2026-05-03 22:31 | 59.73102 | -108.37828 | 37984 ft | 499 kts | 219° |
| 2026-05-03 22:31 | 59.67412 | -108.45731 | 37970 ft | 499 kts | 219° |
| 2026-05-03 22:32 | 59.61716 | -108.53608 | 37975 ft | 499 kts | 218° |
| 2026-05-03 22:32 | 59.56018 | -108.61451 | 37968 ft | 499 kts | 219° |
| 2026-05-03 22:33 | 59.50318 | -108.69269 | 37975 ft | 499 kts | 219° |
| 2026-05-03 22:33 | 59.44615 | -108.77058 | 37981 ft | 499 kts | 218° |
| 2026-05-03 22:34 | 59.38940 | -108.84777 | 37974 ft | 499 kts | 218° |
| 2026-05-03 22:34 | 59.33225 | -108.92515 | 37979 ft | 499 kts | 218° |
| 2026-05-03 22:35 | 59.27505 | -109.00231 | 37982 ft | 499 kts | 218° |
| 2026-05-03 22:35 | 59.21775 | -109.07926 | 37990 ft | 499 kts | 218° |
| 2026-05-03 22:36 | 59.16046 | -109.15590 | 37991 ft | 499 kts | 218° |
| 2026-05-03 22:36 | 59.10304 | -109.23237 | 37990 ft | 499 kts | 218° |
| 2026-05-03 22:37 | 59.04563 | -109.30853 | 37989 ft | 499 kts | 218° |
| 2026-05-03 22:37 | 58.98818 | -109.38442 | 37995 ft | 499 kts | 218° |
| 2026-05-03 22:38 | 58.93076 | -109.46001 | 37994 ft | 499 kts | 218° |
| 2026-05-03 22:38 | 58.87326 | -109.53534 | 37996 ft | 499 kts | 218° |
| 2026-05-03 22:39 | 58.81567 | -109.61047 | 37994 ft | 499 kts | 218° |
| 2026-05-03 22:39 | 58.75807 | -109.68532 | 37995 ft | 499 kts | 218° |
| 2026-05-03 22:40 | 58.70039 | -109.75997 | 38000 ft | 499 kts | 218° |
| 2026-05-03 22:40 | 58.64270 | -109.83434 | 37961 ft | 499 kts | 217° |
| 2026-05-03 22:41 | 58.58505 | -109.90836 | 37985 ft | 498 kts | 217° |
| 2026-05-03 22:41 | 58.52738 | -109.98209 | 37993 ft | 498 kts | 217° |
| 2026-05-03 22:42 | 58.46976 | -110.05548 | 37991 ft | 498 kts | 217° |
| 2026-05-03 22:42 | 58.41204 | -110.12870 | 37999 ft | 498 kts | 217° |
| 2026-05-03 22:43 | 58.35464 | -110.20122 | 37999 ft | 498 kts | 217° |
| 2026-05-03 22:43 | 58.29646 | -110.27438 | 37980 ft | 498 kts | 217° |
| 2026-05-03 22:44 | 58.23904 | -110.34634 | 38001 ft | 498 kts | 217° |
| 2026-05-03 22:44 | 58.18116 | -110.41864 | 38007 ft | 498 kts | 217° |
| 2026-05-03 22:45 | 58.12320 | -110.49074 | 38010 ft | 498 kts | 217° |
| 2026-05-03 22:45 | 58.06526 | -110.56251 | 38017 ft | 498 kts | 217° |
| 2026-05-03 22:46 | 58.00723 | -110.63410 | 37971 ft | 498 kts | 217° |
| 2026-05-03 22:46 | 57.94927 | -110.70527 | 38008 ft | 497 kts | 217° |
| 2026-05-03 22:47 | 57.89122 | -110.77636 | 38011 ft | 497 kts | 217° |
| 2026-05-03 22:47 | 57.83318 | -110.84712 | 38013 ft | 497 kts | 217° |
| 2026-05-03 22:48 | 57.77508 | -110.91772 | 38016 ft | 497 kts | 217° |
| 2026-05-03 22:48 | 57.71696 | -110.98805 | 38013 ft | 497 kts | 217° |
| 2026-05-03 22:49 | 57.65877 | -111.05816 | 38005 ft | 497 kts | 217° |
| 2026-05-03 22:49 | 57.60066 | -111.12793 | 38011 ft | 497 kts | 217° |
| 2026-05-03 22:50 | 57.54249 | -111.19750 | 38012 ft | 497 kts | 217° |
| 2026-05-03 22:50 | 57.48422 | -111.26691 | 38015 ft | 497 kts | 217° |
| 2026-05-03 22:51 | 57.42591 | -111.33612 | 38012 ft | 497 kts | 217° |
| 2026-05-03 22:51 | 57.36798 | -111.40460 | 37984 ft | 497 kts | 217° |
| 2026-05-03 22:52 | 57.30955 | -111.47341 | 38002 ft | 497 kts | 217° |
| 2026-05-03 22:52 | 57.25114 | -111.54196 | 38003 ft | 497 kts | 217° |
| 2026-05-03 22:53 | 57.19267 | -111.61029 | 38001 ft | 497 kts | 217° |
| 2026-05-03 22:53 | 57.13417 | -111.67843 | 37994 ft | 497 kts | 217° |
| 2026-05-03 22:54 | 57.07562 | -111.74636 | 37999 ft | 497 kts | 217° |
| 2026-05-03 22:54 | 57.01698 | -111.81401 | 37981 ft | 498 kts | 217° |
| 2026-05-03 22:55 | 56.95839 | -111.88150 | 37992 ft | 498 kts | 217° |
| 2026-05-03 22:55 | 56.89967 | -111.94887 | 37994 ft | 498 kts | 217° |
| 2026-05-03 22:56 | 56.84096 | -112.01595 | 37988 ft | 498 kts | 217° |
| 2026-05-03 22:56 | 56.78218 | -112.08287 | 37997 ft | 498 kts | 217° |
| 2026-05-03 22:57 | 56.72333 | -112.14951 | 37979 ft | 498 kts | 217° |
| 2026-05-03 22:57 | 56.66440 | -112.21611 | 37996 ft | 498 kts | 217° |
| 2026-05-03 22:58 | 56.60544 | -112.28253 | 37998 ft | 498 kts | 217° |
| 2026-05-03 22:58 | 56.54639 | -112.34877 | 38005 ft | 499 kts | 217° |
| 2026-05-03 22:59 | 56.48732 | -112.41476 | 38009 ft | 499 kts | 217° |
| 2026-05-03 22:59 | 56.43820 | -112.46945 | 37988 ft | 499 kts | 217° |
| 2026-05-03 23:00 | 56.36897 | -112.54615 | 38005 ft | 500 kts | 218° |
| 2026-05-03 23:00 | 56.31964 | -112.60073 | 38018 ft | 500 kts | 218° |
| 2026-05-03 23:01 | 56.25023 | -112.67722 | 38016 ft | 500 kts | 217° |
| 2026-05-03 23:01 | 56.20086 | -112.73140 | 38017 ft | 500 kts | 217° |
| 2026-05-03 23:02 | 56.14143 | -112.79638 | 38015 ft | 500 kts | 217° |
| 2026-05-03 23:02 | 56.08191 | -112.86123 | 38012 ft | 500 kts | 217° |
| 2026-05-03 23:03 | 56.02238 | -112.92586 | 38011 ft | 501 kts | 217° |
| 2026-05-03 23:03 | 55.96274 | -112.99037 | 38006 ft | 501 kts | 217° |
| 2026-05-03 23:04 | 55.90314 | -113.05458 | 38004 ft | 501 kts | 217° |
| 2026-05-03 23:04 | 55.84341 | -113.11870 | 37999 ft | 501 kts | 217° |
| 2026-05-03 23:05 | 55.78360 | -113.18255 | 37983 ft | 501 kts | 218° |
| 2026-05-03 23:05 | 55.72384 | -113.24633 | 38004 ft | 501 kts | 218° |
| 2026-05-03 23:06 | 55.66404 | -113.30990 | 37991 ft | 500 kts | 217° |
| 2026-05-03 23:06 | 55.60429 | -113.37312 | 38005 ft | 500 kts | 217° |
| 2026-05-03 23:07 | 55.54447 | -113.43620 | 37985 ft | 500 kts | 217° |
| 2026-05-03 23:07 | 55.48462 | -113.49897 | 37978 ft | 501 kts | 218° |
| 2026-05-03 23:08 | 55.42461 | -113.56184 | 37991 ft | 502 kts | 218° |
| 2026-05-03 23:08 | 55.36497 | -113.62412 | 37989 ft | 502 kts | 218° |
| 2026-05-03 23:09 | 55.30479 | -113.68668 | 37992 ft | 503 kts | 218° |
| 2026-05-03 23:09 | 55.24448 | -113.74917 | 37995 ft | 504 kts | 218° |
| 2026-05-03 23:10 | 55.18406 | -113.81139 | 37981 ft | 503 kts | 218° |
| 2026-05-03 23:10 | 55.12381 | -113.87338 | 37996 ft | 502 kts | 218° |
| 2026-05-03 23:11 | 55.06355 | -113.93520 | 38004 ft | 502 kts | 218° |
| 2026-05-03 23:11 | 55.00326 | -113.99701 | 38002 ft | 501 kts | 219° |
| 2026-05-03 23:12 | 54.94521 | -114.06289 | 38004 ft | 497 kts | 221° |
| 2026-05-03 23:12 | 54.88733 | -114.12881 | 37978 ft | 495 kts | 222° |
| 2026-05-03 23:13 | 54.82975 | -114.19429 | 37997 ft | 495 kts | 222° |
| 2026-05-03 23:13 | 54.77213 | -114.25969 | 38012 ft | 495 kts | 222° |
| 2026-05-03 23:14 | 54.71451 | -114.32481 | 38013 ft | 495 kts | 222° |
| 2026-05-03 23:14 | 54.65678 | -114.38980 | 37997 ft | 495 kts | 222° |
| 2026-05-03 23:15 | 54.59902 | -114.45461 | 37992 ft | 497 kts | 222° |
| 2026-05-03 23:15 | 54.54086 | -114.51966 | 38007 ft | 498 kts | 222° |
| 2026-05-03 23:16 | 54.48257 | -114.58456 | 38008 ft | 499 kts | 221° |
| 2026-05-03 23:16 | 54.42427 | -114.64927 | 38009 ft | 499 kts | 221° |
| 2026-05-03 23:17 | 54.36631 | -114.71339 | 38003 ft | 499 kts | 221° |
| 2026-05-03 23:17 | 54.30793 | -114.77778 | 37981 ft | 498 kts | 221° |
| 2026-05-03 23:18 | 54.24963 | -114.84182 | 38004 ft | 498 kts | 221° |
| 2026-05-03 23:18 | 54.19133 | -114.90567 | 37997 ft | 497 kts | 221° |
| 2026-05-03 23:19 | 54.13298 | -114.96934 | 38005 ft | 497 kts | 221° |
| 2026-05-03 23:19 | 54.07462 | -115.03281 | 38000 ft | 497 kts | 221° |
| 2026-05-03 23:20 | 54.01644 | -115.09582 | 37996 ft | 494 kts | 221° |
| 2026-05-03 23:20 | 53.95856 | -115.15835 | 38005 ft | 493 kts | 221° |
| 2026-05-03 23:21 | 53.90060 | -115.22080 | 38005 ft | 493 kts | 221° |
| 2026-05-03 23:21 | 53.84264 | -115.28303 | 38003 ft | 493 kts | 221° |
| 2026-05-03 23:22 | 53.75567 | -115.37594 | 37986 ft | 491 kts | 221° |
| 2026-05-03 23:22 | 53.69784 | -115.43748 | 37997 ft | 491 kts | 220° |
| 2026-05-03 23:23 | 53.64008 | -115.49876 | 37996 ft | 491 kts | 220° |
| 2026-05-03 23:23 | 53.58221 | -115.55996 | 37999 ft | 491 kts | 220° |
| 2026-05-03 23:24 | 53.52432 | -115.62098 | 37999 ft | 491 kts | 220° |
| 2026-05-03 23:24 | 53.46640 | -115.68193 | 37982 ft | 491 kts | 220° |
| 2026-05-03 23:25 | 53.40834 | -115.74267 | 37996 ft | 492 kts | 220° |
| 2026-05-03 23:25 | 53.35028 | -115.80323 | 38002 ft | 492 kts | 220° |
| 2026-05-03 23:26 | 53.29216 | -115.86367 | 37994 ft | 491 kts | 220° |
| 2026-05-03 23:26 | 53.23442 | -115.92354 | 37998 ft | 492 kts | 220° |
| 2026-05-03 23:27 | 53.17628 | -115.98362 | 37998 ft | 492 kts | 220° |
| 2026-05-03 23:27 | 53.11806 | -116.04359 | 38003 ft | 492 kts | 219° |
| 2026-05-03 23:28 | 53.05982 | -116.10340 | 37990 ft | 492 kts | 219° |
| 2026-05-03 23:28 | 53.00154 | -116.16305 | 37998 ft | 492 kts | 219° |
| 2026-05-03 23:29 | 52.94337 | -116.22245 | 37947 ft | 491 kts | 219° |
| 2026-05-03 23:29 | 52.88506 | -116.28179 | 37987 ft | 492 kts | 219° |
| 2026-05-03 23:30 | 52.82667 | -116.34092 | 37999 ft | 492 kts | 219° |
| 2026-05-03 23:30 | 52.76830 | -116.39992 | 37991 ft | 491 kts | 219° |
| 2026-05-03 23:31 | 52.70991 | -116.45872 | 38006 ft | 491 kts | 219° |
| 2026-05-03 23:31 | 52.65152 | -116.51742 | 37979 ft | 491 kts | 218° |
| 2026-05-03 23:32 | 52.59310 | -116.57590 | 38004 ft | 491 kts | 218° |
| 2026-05-03 23:32 | 52.53462 | -116.63420 | 38011 ft | 492 kts | 218° |
| 2026-05-03 23:33 | 52.47606 | -116.69245 | 38028 ft | 491 kts | 218° |
| 2026-05-03 23:33 | 52.41760 | -116.75041 | 38015 ft | 491 kts | 218° |
| 2026-05-03 23:34 | 52.35905 | -116.80838 | 37989 ft | 492 kts | 217° |
| 2026-05-03 23:34 | 52.30036 | -116.86615 | 38018 ft | 493 kts | 217° |
| 2026-05-03 23:35 | 52.24154 | -116.92390 | 38021 ft | 493 kts | 217° |
| 2026-05-03 23:35 | 52.18269 | -116.98152 | 38025 ft | 494 kts | 217° |
| 2026-05-03 23:36 | 52.12375 | -117.03905 | 37985 ft | 494 kts | 217° |
| 2026-05-03 23:36 | 52.06471 | -117.09659 | 38015 ft | 495 kts | 217° |
| 2026-05-03 23:37 | 52.00556 | -117.15394 | 38013 ft | 495 kts | 217° |
| 2026-05-03 23:37 | 51.94643 | -117.21101 | 38000 ft | 494 kts | 216° |
| 2026-05-03 23:38 | 51.88726 | -117.26805 | 38011 ft | 493 kts | 217° |
| 2026-05-03 23:38 | 51.82810 | -117.32497 | 37964 ft | 496 kts | 216° |
| 2026-05-03 23:39 | 51.76913 | -117.38147 | 37985 ft | 496 kts | 216° |
| 2026-05-03 23:39 | 51.70967 | -117.43825 | 37961 ft | 495 kts | 216° |
| 2026-05-03 23:40 | 51.65030 | -117.49474 | 37971 ft | 496 kts | 216° |
| 2026-05-03 23:40 | 51.59091 | -117.55107 | 37918 ft | 495 kts | 216° |
| 2026-05-03 23:41 | 51.53147 | -117.60737 | 37971 ft | 496 kts | 215° |
| 2026-05-03 23:41 | 51.47196 | -117.66351 | 37963 ft | 496 kts | 215° |
| 2026-05-03 23:42 | 51.41232 | -117.71962 | 37966 ft | 497 kts | 214° |
| 2026-05-03 23:42 | 51.35266 | -117.77564 | 37961 ft | 496 kts | 215° |
| 2026-05-03 23:43 | 51.29313 | -117.83133 | 37948 ft | 496 kts | 214° |
| 2026-05-03 23:43 | 51.23352 | -117.88685 | 37957 ft | 497 kts | 215° |
| 2026-05-03 23:44 | 51.17381 | -117.94232 | 37942 ft | 496 kts | 214° |
| 2026-05-03 23:44 | 51.11414 | -117.99757 | 37937 ft | 496 kts | 214° |
| 2026-05-03 23:45 | 51.05442 | -118.05275 | 37897 ft | 497 kts | 214° |
| 2026-05-03 23:45 | 50.99464 | -118.10791 | 37933 ft | 497 kts | 214° |
| 2026-05-03 23:46 | 50.93474 | -118.16284 | 37922 ft | 497 kts | 214° |
| 2026-05-03 23:46 | 50.87487 | -118.21761 | 37922 ft | 496 kts | 214° |
| 2026-05-03 23:47 | 50.82517 | -118.26296 | 37927 ft | 496 kts | 214° |
| 2026-05-03 23:47 | 50.76534 | -118.31747 | 37907 ft | 497 kts | 213° |
| 2026-05-03 23:48 | 50.70533 | -118.37195 | 37955 ft | 498 kts | 213° |
| 2026-05-03 23:48 | 50.64532 | -118.42624 | 37951 ft | 497 kts | 213° |
| 2026-05-03 23:49 | 50.58522 | -118.48044 | 37953 ft | 497 kts | 213° |
| 2026-05-03 23:49 | 50.52514 | -118.53449 | 37943 ft | 497 kts | 213° |
| 2026-05-03 23:50 | 50.46504 | -118.58837 | 37939 ft | 497 kts | 213° |
| 2026-05-03 23:50 | 50.40496 | -118.64209 | 37930 ft | 496 kts | 213° |
| 2026-05-03 23:51 | 50.34489 | -118.69566 | 37944 ft | 496 kts | 213° |
| 2026-05-03 23:51 | 50.28484 | -118.74905 | 37966 ft | 496 kts | 213° |
| 2026-05-03 23:52 | 50.22479 | -118.80230 | 37944 ft | 497 kts | 213° |
| 2026-05-03 23:52 | 50.16454 | -118.85551 | 37950 ft | 498 kts | 212° |
| 2026-05-03 23:53 | 50.10415 | -118.90870 | 37946 ft | 498 kts | 212° |
| 2026-05-03 23:53 | 50.04374 | -118.96173 | 37951 ft | 498 kts | 212° |
| 2026-05-03 23:54 | 49.98140 | -119.00891 | 37934 ft | 498 kts | 204° |
| 2026-05-03 23:54 | 49.91618 | -119.04536 | 37941 ft | 499 kts | 200° |
| 2026-05-03 23:55 | 49.85045 | -119.08004 | 37945 ft | 499 kts | 200° |
| 2026-05-03 23:55 | 49.78468 | -119.11484 | 37941 ft | 499 kts | 200° |
| 2026-05-03 23:56 | 49.71899 | -119.14959 | 37937 ft | 499 kts | 200° |
| 2026-05-03 23:56 | 49.65319 | -119.18436 | 37920 ft | 500 kts | 200° |
| 2026-05-03 23:57 | 49.58779 | -119.21879 | 37923 ft | 501 kts | 200° |
| 2026-05-03 23:57 | 49.52176 | -119.25344 | 37921 ft | 501 kts | 200° |
| 2026-05-03 23:58 | 49.45581 | -119.28796 | 37919 ft | 501 kts | 200° |
| 2026-05-03 23:58 | 49.38995 | -119.32238 | 37914 ft | 497 kts | 200° |
| 2026-05-03 23:59 | 49.32445 | -119.35650 | 37908 ft | 497 kts | 200° |
| 2026-05-03 23:59 | 49.25895 | -119.39048 | 37902 ft | 497 kts | 200° |
| 2026-05-04 00:00 | 49.19338 | -119.42441 | 37884 ft | 498 kts | 199° |
| 2026-05-04 00:00 | 49.12769 | -119.45831 | 37898 ft | 498 kts | 200° |
| 2026-05-04 00:01 | 49.06256 | -119.49185 | 37866 ft | 493 kts | 199° |
| 2026-05-04 00:01 | 48.99748 | -119.52523 | 37874 ft | 493 kts | 199° |
| 2026-05-04 00:02 | 48.93246 | -119.55847 | 37883 ft | 493 kts | 199° |
| 2026-05-04 00:02 | 48.86742 | -119.59166 | 37885 ft | 493 kts | 199° |
| 2026-05-04 00:03 | 48.80241 | -119.62475 | 37898 ft | 491 kts | 199° |
| 2026-05-04 00:03 | 48.73771 | -119.65763 | 37890 ft | 491 kts | 199° |
| 2026-05-04 00:04 | 48.67280 | -119.69050 | 37901 ft | 492 kts | 199° |
| 2026-05-04 00:04 | 48.60780 | -119.72330 | 37895 ft | 493 kts | 199° |
| 2026-05-04 00:05 | 48.54271 | -119.75608 | 37910 ft | 492 kts | 199° |
| 2026-05-04 00:05 | 48.47783 | -119.78864 | 37882 ft | 491 kts | 199° |
| 2026-05-04 00:06 | 48.41274 | -119.82131 | 37875 ft | 494 kts | 199° |
| 2026-05-04 00:06 | 48.34743 | -119.85393 | 37882 ft | 494 kts | 199° |
| 2026-05-04 00:07 | 48.28212 | -119.88644 | 37879 ft | 495 kts | 199° |
| 2026-05-04 00:07 | 48.21687 | -119.91885 | 37880 ft | 493 kts | 199° |
| 2026-05-04 00:08 | 48.15174 | -119.95114 | 37863 ft | 494 kts | 199° |
| 2026-05-04 00:08 | 48.08639 | -119.98346 | 37878 ft | 495 kts | 199° |
| 2026-05-04 00:09 | 48.02099 | -120.01568 | 37867 ft | 495 kts | 198° |
| 2026-05-04 00:09 | 47.95555 | -120.04783 | 37880 ft | 494 kts | 199° |
| 2026-05-04 00:10 | 47.89071 | -120.07962 | 37871 ft | 494 kts | 198° |
| 2026-05-04 00:10 | 47.82532 | -120.11164 | 37865 ft | 495 kts | 198° |
| 2026-05-04 00:11 | 47.75982 | -120.14356 | 37863 ft | 495 kts | 198° |
| 2026-05-04 00:11 | 47.69427 | -120.17543 | 37877 ft | 495 kts | 198° |
| 2026-05-04 00:12 | 47.62890 | -120.20715 | 37870 ft | 494 kts | 198° |
| 2026-05-04 00:12 | 47.56358 | -120.23874 | 37874 ft | 493 kts | 198° |
| 2026-05-04 00:13 | 47.49832 | -120.27023 | 37879 ft | 494 kts | 198° |
| 2026-05-04 00:13 | 47.43300 | -120.30167 | 37879 ft | 494 kts | 198° |
| 2026-05-04 00:14 | 47.36775 | -120.33299 | 37879 ft | 492 kts | 198° |
| 2026-05-04 00:14 | 47.30272 | -120.36413 | 37876 ft | 491 kts | 198° |
| 2026-05-04 00:15 | 47.23765 | -120.39525 | 37879 ft | 492 kts | 198° |
| 2026-05-04 00:15 | 47.17258 | -120.42621 | 37884 ft | 492 kts | 198° |
| 2026-05-04 00:16 | 47.10746 | -120.45715 | 37911 ft | 491 kts | 198° |
| 2026-05-04 00:16 | 47.04293 | -120.48772 | 37907 ft | 490 kts | 198° |
| 2026-05-04 00:17 | 46.97761 | -120.51861 | 37902 ft | 490 kts | 197° |
| 2026-05-04 00:17 | 46.91304 | -120.54905 | 37902 ft | 491 kts | 197° |
| 2026-05-04 00:18 | 46.84801 | -120.57961 | 37899 ft | 491 kts | 197° |
| 2026-05-04 00:18 | 46.78301 | -120.61010 | 37889 ft | 491 kts | 197° |
| 2026-05-04 00:19 | 46.71795 | -120.64054 | 37888 ft | 491 kts | 197° |
| 2026-05-04 00:19 | 46.65287 | -120.67093 | 37890 ft | 491 kts | 197° |
| 2026-05-04 00:20 | 46.58773 | -120.70124 | 37898 ft | 491 kts | 197° |
| 2026-05-04 00:20 | 46.52276 | -120.73143 | 37890 ft | 490 kts | 197° |
| 2026-05-04 00:21 | 46.45779 | -120.76150 | 37891 ft | 490 kts | 197° |
| 2026-05-04 00:21 | 46.39290 | -120.79150 | 37896 ft | 490 kts | 197° |
| 2026-05-04 00:22 | 46.32789 | -120.82144 | 37894 ft | 490 kts | 197° |
| 2026-05-04 00:22 | 46.26306 | -120.85126 | 37897 ft | 488 kts | 196° |
| 2026-05-04 00:23 | 46.19872 | -120.88074 | 37895 ft | 488 kts | 196° |
| 2026-05-04 00:23 | 46.13400 | -120.91035 | 37881 ft | 488 kts | 196° |
| 2026-05-04 00:24 | 46.06917 | -120.93994 | 37890 ft | 489 kts | 196° |
| 2026-05-04 00:24 | 46.00441 | -120.96942 | 37878 ft | 486 kts | 196° |
| 2026-05-04 00:25 | 45.93991 | -120.99869 | 37876 ft | 486 kts | 196° |
| 2026-05-04 00:25 | 45.87547 | -121.02787 | 37864 ft | 485 kts | 196° |
| 2026-05-04 00:26 | 45.81101 | -121.05701 | 37856 ft | 486 kts | 196° |
| 2026-05-04 00:26 | 45.74652 | -121.08593 | 37859 ft | 484 kts | 195° |
| 2026-05-04 00:27 | 45.68126 | -121.10813 | 37843 ft | 481 kts | 188° |
| 2026-05-04 00:27 | 45.61511 | -121.12284 | 37842 ft | 481 kts | 187° |
| 2026-05-04 00:28 | 45.54896 | -121.13739 | 37839 ft | 481 kts | 187° |
| 2026-05-04 00:28 | 45.48301 | -121.15187 | 37846 ft | 478 kts | 187° |
| 2026-05-04 00:29 | 45.41732 | -121.16632 | 37848 ft | 477 kts | 187° |
| 2026-05-04 00:29 | 45.35166 | -121.18074 | 37854 ft | 477 kts | 187° |
| 2026-05-04 00:30 | 45.28604 | -121.19512 | 37877 ft | 477 kts | 187° |
| 2026-05-04 00:30 | 45.22063 | -121.20938 | 37868 ft | 475 kts | 187° |
| 2026-05-04 00:31 | 45.15531 | -121.22363 | 37870 ft | 475 kts | 187° |
| 2026-05-04 00:31 | 45.08994 | -121.23786 | 37871 ft | 475 kts | 187° |
| 2026-05-04 00:32 | 45.02466 | -121.25202 | 37885 ft | 474 kts | 187° |
| 2026-05-04 00:32 | 44.95936 | -121.26616 | 37877 ft | 474 kts | 187° |
| 2026-05-04 00:33 | 44.87245 | -121.28493 | 37873 ft | 475 kts | 187° |
| 2026-05-04 00:34 | 44.79608 | -121.30139 | 37884 ft | 474 kts | 187° |
| 2026-05-04 00:34 | 44.73129 | -121.31531 | 37873 ft | 474 kts | 187° |
| 2026-05-04 00:35 | 44.67674 | -121.32699 | 37884 ft | 474 kts | 187° |
| 2026-05-04 00:35 | 44.61153 | -121.34093 | 37874 ft | 474 kts | 187° |
| 2026-05-04 00:36 | 44.54638 | -121.35483 | 37890 ft | 473 kts | 187° |
| 2026-05-04 00:36 | 44.48141 | -121.36867 | 37883 ft | 472 kts | 187° |
| 2026-05-04 00:37 | 44.41643 | -121.38248 | 37883 ft | 472 kts | 187° |
| 2026-05-04 00:37 | 44.35182 | -121.39617 | 37884 ft | 472 kts | 187° |
| 2026-05-04 00:38 | 44.28676 | -121.40994 | 37907 ft | 473 kts | 187° |
| 2026-05-04 00:38 | 44.22164 | -121.42368 | 37915 ft | 473 kts | 187° |
| 2026-05-04 00:39 | 44.15652 | -121.43739 | 37927 ft | 473 kts | 187° |
| 2026-05-04 00:39 | 44.09139 | -121.45106 | 37932 ft | 473 kts | 187° |
| 2026-05-04 00:40 | 44.02637 | -121.46468 | 37926 ft | 472 kts | 187° |
| 2026-05-04 00:40 | 43.96137 | -121.47830 | 37929 ft | 473 kts | 187° |
| 2026-05-04 00:41 | 43.89634 | -121.49187 | 37921 ft | 473 kts | 186° |
| 2026-05-04 00:41 | 43.83135 | -121.50540 | 37925 ft | 472 kts | 187° |
| 2026-05-04 00:42 | 43.76644 | -121.51889 | 37916 ft | 471 kts | 187° |
| 2026-05-04 00:42 | 43.70162 | -121.53233 | 37930 ft | 471 kts | 187° |
| 2026-05-04 00:43 | 43.63677 | -121.54577 | 37938 ft | 471 kts | 187° |
| 2026-05-04 00:43 | 43.57254 | -121.55903 | 37917 ft | 470 kts | 187° |
| 2026-05-04 00:44 | 43.50788 | -121.57233 | 37919 ft | 470 kts | 187° |
| 2026-05-04 00:44 | 43.44325 | -121.58559 | 37913 ft | 470 kts | 187° |
| 2026-05-04 00:45 | 43.37865 | -121.59885 | 37919 ft | 469 kts | 187° |
| 2026-05-04 00:45 | 43.31409 | -121.61206 | 37914 ft | 469 kts | 187° |
| 2026-05-04 00:46 | 43.24953 | -121.62525 | 37912 ft | 469 kts | 187° |
| 2026-05-04 00:46 | 43.18494 | -121.63841 | 37911 ft | 469 kts | 187° |
| 2026-05-04 00:47 | 43.12043 | -121.65150 | 37909 ft | 469 kts | 187° |
| 2026-05-04 00:47 | 43.05585 | -121.66460 | 37904 ft | 469 kts | 187° |
| 2026-05-04 00:48 | 42.99127 | -121.67769 | 37901 ft | 469 kts | 187° |
| 2026-05-04 00:48 | 42.92656 | -121.69075 | 37902 ft | 471 kts | 187° |
| 2026-05-04 00:49 | 42.86164 | -121.70385 | 37902 ft | 471 kts | 187° |
| 2026-05-04 00:49 | 42.79668 | -121.71694 | 37902 ft | 473 kts | 187° |
| 2026-05-04 00:50 | 42.73161 | -121.72998 | 37909 ft | 473 kts | 187° |
| 2026-05-04 00:50 | 42.66651 | -121.74301 | 37906 ft | 473 kts | 187° |
| 2026-05-04 00:51 | 42.60178 | -121.75596 | 37906 ft | 473 kts | 187° |
| 2026-05-04 00:51 | 42.53663 | -121.76896 | 37912 ft | 473 kts | 187° |
| 2026-05-04 00:52 | 42.47160 | -121.78191 | 37911 ft | 472 kts | 187° |
| 2026-05-04 00:52 | 42.40665 | -121.79482 | 37915 ft | 472 kts | 187° |
| 2026-05-04 00:53 | 42.34168 | -121.80768 | 37915 ft | 471 kts | 187° |
| 2026-05-04 00:53 | 42.27688 | -121.82050 | 37921 ft | 469 kts | 187° |
| 2026-05-04 00:54 | 42.21246 | -121.83323 | 37922 ft | 467 kts | 187° |
| 2026-05-04 00:54 | 42.14823 | -121.84586 | 37983 ft | 466 kts | 187° |
| 2026-05-04 00:55 | 42.08402 | -121.85847 | 37976 ft | 467 kts | 186° |
| 2026-05-04 00:55 | 42.01975 | -121.87108 | 37959 ft | 467 kts | 187° |
| 2026-05-04 00:56 | 41.95543 | -121.88368 | 37939 ft | 467 kts | 186° |
| 2026-05-04 00:56 | 41.89111 | -121.89625 | 37939 ft | 467 kts | 187° |
| 2026-05-04 00:57 | 41.82675 | -121.90879 | 37948 ft | 467 kts | 186° |
| 2026-05-04 00:57 | 41.76235 | -121.92131 | 37959 ft | 467 kts | 187° |
| 2026-05-04 00:58 | 41.69802 | -121.93379 | 37957 ft | 468 kts | 186° |
| 2026-05-04 00:58 | 41.63364 | -121.94630 | 37967 ft | 467 kts | 186° |
| 2026-05-04 00:59 | 41.56942 | -121.95870 | 37965 ft | 466 kts | 186° |
| 2026-05-04 00:59 | 41.50524 | -121.97108 | 37964 ft | 466 kts | 186° |
| 2026-05-04 01:00 | 41.44102 | -121.98348 | 37976 ft | 466 kts | 186° |
| 2026-05-04 01:00 | 41.37684 | -121.99582 | 37968 ft | 467 kts | 186° |
| 2026-05-04 01:00 | 41.34491 | -122.00193 | 38087 ft | 472 kts | 186° |
| 2026-05-04 01:01 | 41.31242 | -122.00814 | 38432 ft | 471 kts | 186° |
| 2026-05-04 01:01 | 41.28005 | -122.01432 | 38808 ft | 469 kts | 186° |
| 2026-05-04 01:01 | 41.24774 | -122.02051 | 39100 ft | 468 kts | 186° |
| 2026-05-04 01:01 | 41.21554 | -122.02668 | 39370 ft | 467 kts | 186° |
| 2026-05-04 01:02 | 41.18336 | -122.03279 | 39593 ft | 467 kts | 186° |
| 2026-05-04 01:02 | 41.15117 | -122.03892 | 39814 ft | 468 kts | 187° |
| 2026-05-04 01:02 | 41.11885 | -122.04507 | 39907 ft | 470 kts | 187° |
| 2026-05-04 01:03 | 41.05416 | -122.05741 | 39919 ft | 470 kts | 186° |
| 2026-05-04 01:03 | 40.98936 | -122.06979 | 39914 ft | 470 kts | 187° |
| 2026-05-04 01:04 | 40.92464 | -122.08204 | 39907 ft | 470 kts | 186° |
| 2026-05-04 01:04 | 40.85994 | -122.09425 | 39903 ft | 470 kts | 187° |
| 2026-05-04 01:05 | 40.79523 | -122.10647 | 39894 ft | 469 kts | 186° |
| 2026-05-04 01:05 | 40.73059 | -122.11865 | 39919 ft | 469 kts | 187° |
| 2026-05-04 01:06 | 40.66601 | -122.13083 | 39926 ft | 469 kts | 186° |
| 2026-05-04 01:06 | 40.60134 | -122.14291 | 39939 ft | 470 kts | 187° |
| 2026-05-04 01:07 | 40.53702 | -122.15497 | 39949 ft | 470 kts | 187° |
| 2026-05-04 01:07 | 40.47225 | -122.16708 | 39950 ft | 470 kts | 187° |
| 2026-05-04 01:08 | 40.40742 | -122.17916 | 39945 ft | 471 kts | 187° |
| 2026-05-04 01:08 | 40.34238 | -122.19126 | 39937 ft | 471 kts | 188° |
| 2026-05-04 01:09 | 40.27721 | -122.20340 | 39962 ft | 472 kts | 188° |
| 2026-05-04 01:09 | 40.21219 | -122.21545 | 39971 ft | 472 kts | 188° |
| 2026-05-04 01:10 | 40.14704 | -122.22751 | 39971 ft | 473 kts | 188° |
| 2026-05-04 01:10 | 40.08208 | -122.24134 | 39971 ft | 473 kts | 192° |
| 2026-05-04 01:11 | 40.01777 | -122.25997 | 39940 ft | 473 kts | 193° |
| 2026-05-04 01:11 | 39.95348 | -122.27854 | 39945 ft | 473 kts | 193° |
| 2026-05-04 01:12 | 39.88910 | -122.29708 | 39941 ft | 473 kts | 193° |
| 2026-05-04 01:12 | 39.82482 | -122.31556 | 39939 ft | 473 kts | 193° |
| 2026-05-04 01:13 | 39.76075 | -122.33390 | 39938 ft | 471 kts | 193° |
| 2026-05-04 01:13 | 39.69676 | -122.35227 | 39942 ft | 470 kts | 193° |
| 2026-05-04 01:14 | 39.63283 | -122.37057 | 39941 ft | 471 kts | 193° |
| 2026-05-04 01:14 | 39.56892 | -122.38877 | 39938 ft | 468 kts | 193° |
| 2026-05-04 01:15 | 39.50544 | -122.40686 | 39932 ft | 467 kts | 193° |
| 2026-05-04 01:15 | 39.44186 | -122.42498 | 39538 ft | 469 kts | 193° |
| 2026-05-04 01:15 | 39.41036 | -122.43393 | 38998 ft | 470 kts | 193° |
| 2026-05-04 01:16 | 39.37843 | -122.44300 | 38429 ft | 470 kts | 192° |
| 2026-05-04 01:16 | 39.34649 | -122.45213 | 37782 ft | 470 kts | 192° |
| 2026-05-04 01:16 | 39.31463 | -122.46124 | 37202 ft | 468 kts | 191° |
| 2026-05-04 01:16 | 39.28286 | -122.47025 | 36635 ft | 467 kts | 190° |
| 2026-05-04 01:17 | 39.25115 | -122.47920 | 36052 ft | 466 kts | 189° |
| 2026-05-04 01:17 | 39.21944 | -122.48816 | 35475 ft | 466 kts | 189° |
| 2026-05-04 01:17 | 39.18780 | -122.49709 | 34924 ft | 466 kts | 188° |
| 2026-05-04 01:17 | 39.15603 | -122.50608 | 34369 ft | 465 kts | 187° |
| 2026-05-04 01:18 | 39.12431 | -122.51500 | 33798 ft | 466 kts | 186° |
| 2026-05-04 01:18 | 39.09247 | -122.52391 | 33168 ft | 465 kts | 186° |
| 2026-05-04 01:18 | 39.06086 | -122.53270 | 32577 ft | 465 kts | 186° |
| 2026-05-04 01:18 | 39.02908 | -122.54154 | 32000 ft | 464 kts | 186° |
| 2026-05-04 01:19 | 38.99753 | -122.55035 | 31424 ft | 464 kts | 186° |
| 2026-05-04 01:19 | 38.96599 | -122.55917 | 30836 ft | 464 kts | 186° |
| 2026-05-04 01:19 | 38.93439 | -122.56802 | 30253 ft | 465 kts | 186° |
| 2026-05-04 01:19 | 38.90272 | -122.57687 | 29572 ft | 467 kts | 186° |
| 2026-05-04 01:20 | 38.87094 | -122.58576 | 28868 ft | 468 kts | 186° |
| 2026-05-04 01:20 | 38.83907 | -122.59476 | 28158 ft | 470 kts | 187° |
| 2026-05-04 01:20 | 38.80714 | -122.60380 | 27455 ft | 471 kts | 187° |
| 2026-05-04 01:20 | 38.77512 | -122.61287 | 26874 ft | 469 kts | 187° |
| 2026-05-04 01:21 | 38.74342 | -122.62193 | 26472 ft | 464 kts | 186° |
| 2026-05-04 01:21 | 38.71204 | -122.63087 | 26022 ft | 460 kts | 186° |
| 2026-05-04 01:21 | 38.68095 | -122.63962 | 25575 ft | 456 kts | 186° |
| 2026-05-04 01:21 | 38.65009 | -122.64828 | 25130 ft | 452 kts | 186° |
| 2026-05-04 01:22 | 38.61948 | -122.65687 | 24681 ft | 449 kts | 186° |
| 2026-05-04 01:22 | 38.58911 | -122.66542 | 24266 ft | 445 kts | 186° |
| 2026-05-04 01:22 | 38.56913 | -122.67105 | 23989 ft | 442 kts | 186° |
| 2026-05-04 01:22 | 38.53918 | -122.67947 | 23584 ft | 439 kts | 186° |
| 2026-05-04 01:23 | 38.50948 | -122.68779 | 23065 ft | 435 kts | 187° |
| 2026-05-04 01:23 | 38.48009 | -122.69602 | 22583 ft | 431 kts | 187° |
| 2026-05-04 01:23 | 38.45093 | -122.70419 | 22099 ft | 427 kts | 187° |
| 2026-05-04 01:23 | 38.42206 | -122.71228 | 21631 ft | 423 kts | 187° |
| 2026-05-04 01:24 | 38.39345 | -122.72030 | 21174 ft | 419 kts | 188° |
| 2026-05-04 01:24 | 38.36506 | -122.72824 | 20720 ft | 416 kts | 188° |
| 2026-05-04 01:24 | 38.33694 | -122.73611 | 20272 ft | 412 kts | 188° |
| 2026-05-04 01:24 | 38.30901 | -122.74388 | 19813 ft | 409 kts | 189° |
| 2026-05-04 01:25 | 38.28129 | -122.75165 | 19343 ft | 407 kts | 189° |
| 2026-05-04 01:25 | 38.25382 | -122.75924 | 19021 ft | 398 kts | 188° |
| 2026-05-04 01:25 | 38.22690 | -122.76259 | 18983 ft | 379 kts | 178° |
| 2026-05-04 01:25 | 38.20077 | -122.76041 | 18781 ft | 375 kts | 169° |
| 2026-05-04 01:26 | 38.17538 | -122.75388 | 18409 ft | 370 kts | 165° |
| 2026-05-04 01:26 | 38.15038 | -122.74646 | 18032 ft | 365 kts | 165° |
| 2026-05-04 01:26 | 38.12586 | -122.73911 | 17671 ft | 360 kts | 165° |
| 2026-05-04 01:26 | 38.10165 | -122.73188 | 17292 ft | 354 kts | 165° |
| 2026-05-04 01:27 | 38.07779 | -122.72489 | 16888 ft | 350 kts | 165° |
| 2026-05-04 01:27 | 38.05409 | -122.71798 | 16453 ft | 348 kts | 165° |
| 2026-05-04 01:27 | 38.03057 | -122.71116 | 15993 ft | 346 kts | 165° |
| 2026-05-04 01:27 | 38.00717 | -122.70438 | 15591 ft | 343 kts | 165° |
| 2026-05-04 01:28 | 37.98397 | -122.69767 | 15222 ft | 342 kts | 165° |
| 2026-05-04 01:28 | 37.96080 | -122.69097 | 14872 ft | 340 kts | 165° |
| 2026-05-04 01:28 | 37.93777 | -122.68431 | 14551 ft | 339 kts | 165° |
| 2026-05-04 01:28 | 37.91492 | -122.67715 | 14226 ft | 337 kts | 160° |
| 2026-05-04 01:29 | 37.89379 | -122.66512 | 13944 ft | 329 kts | 148° |
| 2026-05-04 01:29 | 37.87540 | -122.64845 | 13645 ft | 322 kts | 140° |
| 2026-05-04 01:29 | 37.85837 | -122.63040 | 13369 ft | 316 kts | 139° |
| 2026-05-04 01:29 | 37.84177 | -122.61249 | 13071 ft | 310 kts | 139° |
| 2026-05-04 01:30 | 37.82552 | -122.59505 | 12796 ft | 303 kts | 139° |
| 2026-05-04 01:30 | 37.80953 | -122.57800 | 12537 ft | 297 kts | 139° |
| 2026-05-04 01:30 | 37.79376 | -122.56125 | 12186 ft | 294 kts | 139° |
| 2026-05-04 01:30 | 37.77814 | -122.54467 | 11833 ft | 291 kts | 139° |
| 2026-05-04 01:31 | 37.76270 | -122.52832 | 11535 ft | 287 kts | 139° |
| 2026-05-04 01:31 | 37.74747 | -122.51223 | 11255 ft | 283 kts | 139° |
| 2026-05-04 01:31 | 37.73246 | -122.49636 | 11015 ft | 278 kts | 140° |
| 2026-05-04 01:31 | 37.71791 | -122.48091 | 11006 ft | 272 kts | 139° |
| 2026-05-04 01:32 | 37.70311 | -122.46514 | 11009 ft | 281 kts | 139° |
| 2026-05-04 01:32 | 37.68827 | -122.44934 | 11001 ft | 283 kts | 139° |
| 2026-05-04 01:32 | 37.67322 | -122.43335 | 11000 ft | 283 kts | 139° |
| 2026-05-04 01:32 | 37.65820 | -122.41739 | 11001 ft | 282 kts | 139° |
| 2026-05-04 01:33 | 37.64315 | -122.40141 | 10997 ft | 283 kts | 139° |
| 2026-05-04 01:33 | 37.62807 | -122.38537 | 11001 ft | 283 kts | 140° |
| 2026-05-04 01:33 | 37.61293 | -122.36953 | 10996 ft | 283 kts | 142° |
| 2026-05-04 01:33 | 37.59671 | -122.35549 | 11002 ft | 282 kts | 149° |
| 2026-05-04 01:34 | 37.57938 | -122.34391 | 10998 ft | 282 kts | 155° |
| 2026-05-04 01:34 | 37.56139 | -122.33486 | 10911 ft | 274 kts | 159° |
| 2026-05-04 01:34 | 37.54398 | -122.32604 | 10736 ft | 265 kts | 155° |
| 2026-05-04 01:34 | 37.52763 | -122.31605 | 10583 ft | 257 kts | 153° |
| 2026-05-04 01:35 | 37.51186 | -122.30606 | 10370 ft | 251 kts | 153° |
| 2026-05-04 01:35 | 37.49640 | -122.29621 | 10129 ft | 247 kts | 153° |
| 2026-05-04 01:35 | 37.48117 | -122.28647 | 9888 ft | 243 kts | 153° |
| 2026-05-04 01:35 | 37.46620 | -122.27689 | 9627 ft | 240 kts | 153° |
| 2026-05-04 01:36 | 37.45147 | -122.26745 | 9339 ft | 236 kts | 153° |
| 2026-05-04 01:36 | 37.43694 | -122.25815 | 9043 ft | 233 kts | 153° |
| 2026-05-04 01:36 | 37.42262 | -122.24898 | 8767 ft | 229 kts | 153° |
| 2026-05-04 01:36 | 37.40857 | -122.23997 | 8461 ft | 225 kts | 153° |
| 2026-05-04 01:37 | 37.39461 | -122.23105 | 8108 ft | 226 kts | 153° |
| 2026-05-04 01:37 | 37.38057 | -122.22206 | 7644 ft | 226 kts | 153° |
| 2026-05-04 01:37 | 37.36639 | -122.21356 | 7218 ft | 225 kts | 158° |
| 2026-05-04 01:37 | 37.35143 | -122.20720 | 6771 ft | 226 kts | 162° |
| 2026-05-04 01:38 | 37.33645 | -122.20092 | 6277 ft | 228 kts | 150° |
| 2026-05-04 01:38 | 37.32593 | -122.18687 | 6000 ft | 221 kts | 114° |
| 2026-05-04 01:38 | 37.32310 | -122.16780 | 6014 ft | 226 kts | 89° |
| 2026-05-04 01:38 | 37.32748 | -122.14874 | 5971 ft | 231 kts | 61° |
| 2026-05-04 01:39 | 37.33853 | -122.13441 | 5972 ft | 237 kts | 32° |
| 2026-05-04 01:39 | 37.35396 | -122.12648 | 5984 ft | 242 kts | 21° |
| 2026-05-04 01:39 | 37.37011 | -122.12097 | 5967 ft | 243 kts | 8° |
| 2026-05-04 01:39 | 37.38700 | -122.12175 | 5932 ft | 242 kts | 349° |
| 2026-05-04 01:40 | 37.40321 | -122.12701 | 5706 ft | 239 kts | 344° |
| 2026-05-04 01:40 | 37.41902 | -122.13296 | 5329 ft | 236 kts | 343° |
| 2026-05-04 01:40 | 37.43461 | -122.13875 | 4992 ft | 231 kts | 344° |
| 2026-05-04 01:40 | 37.44997 | -122.14426 | 4658 ft | 228 kts | 344° |
| 2026-05-04 01:41 | 37.46516 | -122.14944 | 4297 ft | 225 kts | 344° |
| 2026-05-04 01:41 | 37.48018 | -122.15440 | 3988 ft | 220 kts | 343° |
| 2026-05-04 01:41 | 37.49476 | -122.15916 | 3702 ft | 213 kts | 342° |
| 2026-05-04 01:41 | 37.50891 | -122.16382 | 3391 ft | 207 kts | 341° |
| 2026-05-04 01:42 | 37.52255 | -122.16831 | 3162 ft | 198 kts | 341° |
| 2026-05-04 01:42 | 37.53449 | -122.17497 | 2988 ft | 178 kts | 313° |
| 2026-05-04 01:42 | 37.54211 | -122.18689 | 3012 ft | 173 kts | 299° |
| 2026-05-04 01:42 | 37.54801 | -122.19959 | 2834 ft | 163 kts | 295° |
| 2026-05-04 01:43 | 37.55320 | -122.21192 | 2591 ft | 156 kts | 294° |
| 2026-05-04 01:43 | 37.55817 | -122.22405 | 2422 ft | 155 kts | 293° |
| 2026-05-04 01:43 | 37.56309 | -122.23598 | 2214 ft | 150 kts | 293° |
| 2026-05-04 01:43 | 37.56779 | -122.24734 | 1987 ft | 143 kts | 294° |
| 2026-05-04 01:44 | 37.57244 | -122.25854 | 1809 ft | 144 kts | 293° |
| 2026-05-04 01:44 | 37.57708 | -122.26970 | 1622 ft | 143 kts | 293° |
| 2026-05-04 01:44 | 37.58167 | -122.28070 | 1438 ft | 141 kts | 293° |
| 2026-05-04 01:44 | 37.58623 | -122.29167 | 1241 ft | 142 kts | 294° |
| 2026-05-04 01:45 | 37.59086 | -122.30272 | 1062 ft | 141 kts | 292° |
| 2026-05-04 01:45 | 37.59537 | -122.31357 | 836 ft | 140 kts | 294° |
| 2026-05-04 01:45 | 37.60464 | -122.33564 | 451 ft | 146 kts | 292° |
| 2026-05-04 01:46 | 37.60936 | -122.34704 | 250 ft | 145 kts | 291° |
| 2026-05-04 01:46 | 37.61399 | -122.35817 | 58 ft | 141 kts | 293° |
| 2026-05-04 01:46 | 37.61819 | -122.36828 | 29 ft | 109 kts | 298° |
| 2026-05-04 01:46 | 37.62071 | -122.37426 | 29 ft | 50 kts | 298° |
| 2026-05-04 01:47 | 37.62191 | -122.37715 | 29 ft | 27 kts | 295° |
| 2026-05-04 01:47 | 37.62231 | -122.37915 | 29 ft | 24 kts | 271° |
| 2026-05-04 01:47 | 37.62230 | -122.38089 | 29 ft | 18 kts | 275° |
| 2026-05-04 01:47 | 37.62229 | -122.38218 | 29 ft | 12 kts | 267° |
| 2026-05-04 01:48 | 37.62224 | -122.38339 | 29 ft | 16 kts | 267° |
| 2026-05-04 01:48 | 37.62218 | -122.38488 | 29 ft | 14 kts | 266° |
| 2026-05-04 01:48 | 37.62213 | -122.38573 | 29 ft | 8 kts | 255° |
| 2026-05-04 01:48 | 37.62178 | -122.38634 | 29 ft | 7 kts | 229° |
| 2026-05-04 01:49 | 37.62176 | -122.38706 | 29 ft | 11 kts | 300° |
| 2026-05-04 01:49 | 37.62218 | -122.38803 | 29 ft | 14 kts | 298° |
| 2026-05-04 01:49 | 37.62265 | -122.38915 | 29 ft | 15 kts | 296° |
| 2026-05-04 01:49 | 37.62306 | -122.38989 | 29 ft | 9 kts | 313° |
| 2026-05-04 01:50 | 37.62319 | -122.39058 | 29 ft | 9 kts | 259° |
| 2026-05-04 01:50 | 37.62292 | -122.39148 | 29 ft | 11 kts | 236° |
| 2026-05-04 01:50 | 37.62221 | -122.39215 | 29 ft | 15 kts | 210° |
| 2026-05-04 01:50 | 37.62124 | -122.39279 | 29 ft | 14 kts | 207° |
| 2026-05-04 01:51 | 37.62057 | -122.39323 | 29 ft | 10 kts | 207° |
| 2026-05-04 01:51 | 37.62005 | -122.39363 | 29 ft | 9 kts | 227° |
| 2026-05-04 01:51 | 37.61981 | -122.39438 | 29 ft | 8 kts | 253° |
| 2026-05-04 01:51 | 37.61959 | -122.39495 | 29 ft | 0 kts | 230° |
| 2026-05-04 01:52 | 37.61951 | -122.39505 | 29 ft | 3 kts | 220° |
| 2026-05-04 01:52 | 37.61930 | -122.39510 | 29 ft | 3 kts | 155° |
| 2026-05-04 01:52 | 37.61912 | -122.39477 | 28 ft | 7 kts | 121° |
| 2026-05-04 01:52 | 37.61895 | -122.39439 | 29 ft | 3 kts | 118° |
| 2026-05-04 01:53 | 37.61887 | -122.39419 | 29 ft | 0 kts | 118° |